EST,Max TemperatureF,Mean TemperatureF,Min TemperatureF,Max Dew PointF,MeanDew PointF,Min DewpointF,Max Humidity, Mean Humidity, Min Humidity, Max Sea Level PressureIn, Mean Sea Level PressureIn, Min Sea Level PressureIn, Max VisibilityMiles, Mean VisibilityMiles, Min VisibilityMiles, Max Wind SpeedMPH, Mean Wind SpeedMPH, Max Gust SpeedMPH,PrecipitationIn, CloudCover, Events, WindDirDegrees
2013-1-1,35,26,15,25,12,1,70,52,40,29.96,29.81,29.68,10,10,10,20,9,31,0.00,3,,277
2013-1-2,25,16,5,13,3,-9,67,56,50,30.17,30.01,29.89,10,10,10,16,7,23,0.00,3,,287
2013-1-3,21,11,1,3,-5,-10,73,51,30,30.19,30.11,30.03,10,10,10,13,7,21,0.00,2,,325
2013-1-4,37,21,5,19,13,0,84,63,46,30.00,29.90,29.82,10,10,7,10,3,17,0.00,4,,243
2013-1-5,37,27,17,21,17,12,81,57,38,30.28,30.11,29.84,10,10,9,15,7,31,0.00,2,,284
2013-1-6,39,29,19,25,21,14,89,73,55,30.25,30.06,29.96,10,8,2,9,2,17,0.00,5,Snow,223
2013-1-7,33,24,15,28,17,9,85,65,40,30.42,30.26,29.99,10,10,8,15,4,24,0.00,2,Snow,320
2013-1-8,43,28,12,24,18,9,86,68,42,30.39,30.34,30.28,10,9,7,12,3,18,0.00,0,,204
2013-1-9,43,30,17,31,22,14,92,74,49,30.44,30.24,30.00,10,9,7,15,2,23,0.00,2,Rain,197
2013-1-10,43,38,30,25,22,20,72,51,42,30.58,30.36,30.04,10,10,10,22,13,44,0.00,0,,314
2013-1-11,37,29,21,34,25,18,100,79,59,30.56,30.40,30.21,10,8,1,5,1,,0.11,4,Rain,278
2013-1-12,39,36,33,38,35,32,100,97,93,30.25,30.17,30.11,2,1,0,5,0,,0.01,8,Fog-Rain,290
2013-1-13,46,40,35,45,40,35,100,97,93,30.18,30.08,29.97,8,1,0,10,2,,0.00,8,Fog,172
2013-1-14,57,48,37,47,39,23,100,82,35,30.29,30.00,29.86,10,6,0,21,5,28,0.00,3,Fog,216
2013-1-15,39,34,30,23,22,20,72,57,46,30.35,30.30,30.26,10,10,10,9,4,,0.00,1,,330
2013-1-16,32,30,28,30,27,21,93,89,69,30.28,30.00,29.80,10,3,0,7,2,,0.38,7,Fog-Snow,346
2013-1-17,39,32,25,29,21,3,100,72,37,30.14,29.96,29.79,10,8,0,14,5,20,0.00,1,Fog,251
2013-1-18,24,18,12,7,-3,-9,49,39,28,30.47,30.35,30.14,10,10,10,20,10,25,0.00,2,,306
2013-1-19,43,31,19,26,16,4,65,49,38,30.37,30.10,29.88,10,10,10,20,8,31,0.00,3,,191
2013-1-20,48,37,26,28,19,5,70,49,25,29.95,29.73,29.54,10,10,10,21,10,37,0.00,2,,234
2013-1-21,24,22,19,18,6,-4,93,53,32,30.11,29.99,29.81,10,9,2,18,9,26,0.00,5,Snow,260
2013-1-22,23,18,10,17,7,-7,93,64,35,30.10,29.91,29.74,10,8,2,16,5,25,0.00,4,Snow,292
2013-1-23,12,8,1,-4,-14,-19,63,39,25,30.18,30.14,30.09,10,10,10,17,7,24,0.00,0,,311
2013-1-24,17,8,-2,-12,-14,-16,54,38,24,30.26,30.17,30.10,10,10,10,22,9,37,0.00,0,,312
2013-1-25,21,14,6,4,-10,-12,59,36,23,30.35,30.24,30.11,10,10,5,15,9,29,0.00,2,Snow,303
2013-1-26,21,16,10,9,-2,-12,77,50,26,30.26,30.13,30.05,10,10,3,20,10,26,0.00,2,Snow,321
2013-1-27,28,20,12,1,-4,-8,56,37,21,30.51,30.41,30.26,10,10,10,21,11,26,0.00,0,,318
2013-1-28,26,21,16,21,12,-5,88,68,36,30.50,30.21,30.02,10,5,0,7,4,,0.15,7,Fog-Snow,11
2013-1-29,33,26,19,31,23,17,96,83,72,30.23,30.16,30.02,10,7,1,8,5,,0.02,8,Rain-Snow,337
2013-1-30,55,44,32,54,40,30,100,94,87,30.16,29.76,29.41,10,2,0,13,4,,0.09,8,Fog-Rain,177
2013-1-31,61,46,30,57,37,8,94,67,36,29.58,29.18,28.93,10,7,2,25,17,47,0.51,6,Rain,233